Time;durP1;ratioP1;P1;durP2;ratioP2;P2;SDS_P1;SDS_P2;PMS_P1;PMS_P2;Temp;Humidity;BMP_temperature;BMP_pressure;BME280_temperature;BME280_humidity;BME280_pressure;Samples;Min_cycle;Max_cycle;Signal;HPM_P1;HPM_P2
2021/12/04 00:02:06;;;;;;;7.40;5.30;;;;;;;;;;5010209;28;20044;-87
2021/12/04 00:04:39;;;;;;;6.07;4.60;;;;;;;;;;5033107;28;20041;-85
2021/12/04 00:07:07;;;;;;;;;;;;;;;;;;5027490;28;20040;-82
2021/12/04 00:09:33;;;;;;;7.28;5.25;;;;;;;;;;5011958;28;19917;-82
2021/12/04 00:12:00;;;;;;;7.75;5.43;;;;;;;;;;5014386;28;20148;-85
2021/12/04 00:14:26;;;;;;;7.38;5.38;;;;;;;;;;5033211;28;20025;-82
2021/12/04 00:16:52;;;;;;;7.45;5.82;;;;;;;;;;5026797;28;20082;-86
2021/12/04 00:19:18;;;;;;;7.45;5.30;;;;;;;;;;5029495;28;20032;-87
2021/12/04 00:21:44;;;;;;;7.57;5.90;;;;;;;;;;5050561;28;20396;-84
2021/12/04 00:24:09;;;;;;;8.65;5.82;;;;;;;;;;5028047;28;20033;-82
2021/12/04 00:26:35;;;;;;;7.38;5.20;;;;;;;;;;5031001;28;20025;-87
2021/12/04 00:29:00;;;;;;;6.88;5.15;;;;;;;;;;5033045;28;20495;-82
2021/12/04 00:31:27;;;;;;;7.28;4.78;;;;;;;;;;5028599;28;20400;-84
2021/12/04 00:33:53;;;;;;;5.97;5.15;;;;;;;;;;5049103;28;20477;-82
2021/12/04 00:36:35;;;;;;;6.55;4.97;;;;;;;;;;5050881;28;20151;-86
2021/12/04 00:49:57;;;;;;;7.55;4.90;;;;;;;;;;5044160;28;20420;-85
2021/12/04 00:52:22;;;;;;;5.97;4.47;;;;;;;;;;5032340;28;21703;-82
2021/12/04 00:54:48;;;;;;;7.05;4.80;;;;;;;;;;5036769;28;20100;-82
2021/12/04 00:57:13;;;;;;;6.68;5.15;;;;;;;;;;5051406;28;20037;-88
2021/12/04 00:59:39;;;;;;;8.15;5.20;;;;;;;;;;5053383;28;20712;-82
2021/12/04 01:02:04;;;;;;;6.65;4.97;;;;;;;;;;5031160;28;20421;-84
2021/12/04 01:04:30;;;;;;;6.13;4.72;;;;;;;;;;5035590;28;20104;-87
2021/12/04 01:06:55;;;;;;;6.72;5.00;;;;;;;;;;5050157;28;20050;-87
2021/12/04 01:09:23;;;;;;;7.25;5.10;;;;;;;;;;5038211;28;20032;-87
2021/12/04 01:11:49;;;;;;;8.85;5.30;;;;;;;;;;5035812;28;20420;-85
2021/12/04 01:14:18;;;;;;;8.43;5.50;;;;;;;;;;5038587;28;20036;-88
2021/12/04 01:16:44;;;;;;;7.38;5.05;;;;;;;;;;5036800;28;20556;-82
2021/12/04 01:19:09;;;;;;;6.97;4.72;;;;;;;;;;5055628;28;20040;-81
2021/12/04 01:21:35;;;;;;;7.22;5.30;;;;;;;;;;5038121;28;20392;-87
2021/12/04 01:24:00;;;;;;;6.82;5.13;;;;;;;;;;5037378;28;20029;-84
2021/12/04 01:26:26;;;;;;;7.43;4.85;;;;;;;;;;5034248;28;20039;-84
2021/12/04 01:28:52;;;;;;;8.43;5.07;;;;;;;;;;5037083;28;20047;-81
2021/12/04 01:31:18;;;;;;;7.82;5.53;;;;;;;;;;5055164;28;20029;-87
2021/12/04 01:33:43;;;;;;;7.43;5.20;;;;;;;;;;5055092;28;20021;-84
2021/12/04 01:36:09;;;;;;;11.18;5.45;;;;;;;;;;5035665;28;20108;-84
2021/12/04 01:38:35;;;;;;;6.68;4.72;;;;;;;;;;5055668;28;20112;-84
2021/12/04 01:41:01;;;;;;;7.05;4.60;;;;;;;;;;5037611;28;20063;-87
2021/12/04 01:43:26;;;;;;;7.22;4.95;;;;;;;;;;5037599;28;20055;-84
2021/12/04 01:45:56;;;;;;;6.22;4.68;;;;;;;;;;5037406;28;20036;-81
2021/12/04 01:48:22;;;;;;;7.43;4.93;;;;;;;;;;5046220;28;20041;-88
2021/12/04 01:50:48;;;;;;;7.97;5.28;;;;;;;;;;5037734;28;20037;-82
2021/12/04 01:53:14;;;;;;;8.27;4.82;;;;;;;;;;5040831;28;20029;-84
2021/12/04 01:55:39;;;;;;;7.07;4.82;;;;;;;;;;5036719;28;20392;-85
2021/12/04 01:58:05;;;;;;;6.40;4.70;;;;;;;;;;5036736;28;20021;-84
2021/12/04 02:00:37;;;;;;;8.63;5.40;;;;;;;;;;5035035;28;20029;-87
2021/12/04 02:03:04;;;;;;;7.80;5.55;;;;;;;;;;5034665;28;20025;-84
2021/12/04 02:05:31;;;;;;;7.70;5.38;;;;;;;;;;5028493;28;20082;-81
2021/12/04 02:07:58;;;;;;;6.85;4.95;;;;;;;;;;5029702;28;20482;-81
2021/12/04 02:10:23;;;;;;;7.88;5.68;;;;;;;;;;5033387;28;20021;-84
2021/12/04 02:12:49;;;;;;;8.88;5.80;;;;;;;;;;5029307;28;20400;-84
2021/12/04 02:15:17;;;;;;;8.55;5.55;;;;;;;;;;5034729;28;20104;-88
2021/12/04 02:17:46;;;;;;;7.18;4.57;;;;;;;;;;5054292;28;20040;-84
2021/12/04 02:20:16;;;;;;;8.02;5.53;;;;;;;;;;5037328;28;20503;-87
2021/12/04 02:22:41;;;;;;;8.07;5.55;;;;;;;;;;5054561;28;20029;-84
2021/12/04 02:25:09;;;;;;;7.95;5.53;;;;;;;;;;5052155;28;20496;-87
2021/12/04 02:27:35;;;;;;;6.88;4.90;;;;;;;;;;5037230;28;20439;-84
2021/12/04 02:30:01;;;;;;;8.15;5.28;;;;;;;;;;5034953;28;20059;-82
2021/12/04 02:32:26;;;;;;;8.40;5.38;;;;;;;;;;5032203;28;20036;-84
2021/12/04 02:34:51;;;;;;;10.23;6.00;;;;;;;;;;5036543;28;20033;-84
2021/12/04 02:37:17;;;;;;;9.70;5.50;;;;;;;;;;5051722;28;20141;-88
2021/12/04 02:39:46;;;;;;;10.32;5.97;;;;;;;;;;5031938;28;20163;-84
2021/12/04 02:42:23;;;;;;;8.65;5.55;;;;;;;;;;5053586;28;20017;-83
2021/12/04 02:44:48;;;;;;;9.60;5.80;;;;;;;;;;5048363;28;20065;-84
2021/12/04 02:47:15;;;;;;;9.23;5.95;;;;;;;;;;5028639;28;20022;-88
2021/12/04 02:49:41;;;;;;;8.85;5.47;;;;;;;;;;5033004;28;20040;-87
2021/12/04 02:52:08;;;;;;;10.00;5.32;;;;;;;;;;5036928;28;20036;-81
2021/12/04 02:54:35;;;;;;;9.48;6.30;;;;;;;;;;5039151;28;20476;-82
2021/12/04 02:57:02;;;;;;;9.73;5.97;;;;;;;;;;5037060;28;20020;-84
2021/12/04 02:59:27;;;;;;;8.00;5.22;;;;;;;;;;5038834;28;20033;-84
2021/12/04 03:01:55;;;;;;;10.32;6.03;;;;;;;;;;5051663;28;20042;-87
2021/12/04 03:04:23;;;;;;;9.07;5.00;;;;;;;;;;5036413;28;20029;-84
2021/12/04 03:06:48;;;;;;;9.23;6.30;;;;;;;;;;5034695;28;20091;-88
2021/12/04 03:09:14;;;;;;;9.18;5.75;;;;;;;;;;5032130;28;20107;-88
2021/12/04 03:11:41;;;;;;;8.75;5.18;;;;;;;;;;5030166;28;20029;-84
2021/12/04 03:14:06;;;;;;;8.65;5.65;;;;;;;;;;5015733;28;20045;-81
2021/12/04 03:16:34;;;;;;;8.40;6.05;;;;;;;;;;5016200;28;20465;-84
2021/12/04 03:19:00;;;;;;;9.88;5.97;;;;;;;;;;5014254;28;20068;-84
2021/12/04 03:21:26;;;;;;;8.95;5.60;;;;;;;;;;5014051;28;20042;-84
2021/12/04 03:23:55;;;;;;;8.50;5.43;;;;;;;;;;5032416;28;20033;-87
2021/12/04 03:26:21;;;;;;;9.00;4.97;;;;;;;;;;5006810;28;20036;-84
2021/12/04 03:28:48;;;;;;;9.15;5.38;;;;;;;;;;5014814;28;20029;-82
2021/12/04 03:31:20;;;;;;;10.02;5.97;;;;;;;;;;5015331;28;20125;-84
2021/12/04 03:41:57;;;;;;;9.80;5.63;;;;;;;;;;5026283;28;20040;-84
2021/12/04 03:44:23;;;;;;;11.18;6.40;;;;;;;;;;5015845;28;20025;-84
2021/12/04 03:46:48;;;;;;;10.23;6.00;;;;;;;;;;5008422;28;20033;-85
2021/12/04 03:49:14;;;;;;;10.52;5.55;;;;;;;;;;5014216;28;20021;-88
2021/12/04 03:51:40;;;;;;;9.95;5.85;;;;;;;;;;5021205;28;20455;-84
2021/12/04 03:54:05;;;;;;;8.35;5.72;;;;;;;;;;5032841;28;20030;-87
2021/12/04 03:56:32;;;;;;;8.75;5.38;;;;;;;;;;5006166;28;20036;-86
2021/12/04 03:58:57;;;;;;;12.23;6.90;;;;;;;;;;5015543;28;20108;-82
2021/12/04 04:01:23;;;;;;;10.35;6.05;;;;;;;;;;5015337;28;20116;-81
2021/12/04 04:03:48;;;;;;;10.90;7.38;;;;;;;;;;5014442;28;20489;-81
2021/12/04 04:06:15;;;;;;;9.75;6.28;;;;;;;;;;5011522;28;20068;-84
2021/12/04 04:08:41;;;;;;;10.90;6.50;;;;;;;;;;5015050;28;20041;-82
2021/12/04 04:11:07;;;;;;;9.48;6.47;;;;;;;;;;5031096;28;20038;-84
2021/12/04 04:13:32;;;;;;;11.13;7.15;;;;;;;;;;5026889;28;20723;-81
2021/12/04 04:15:59;;;;;;;11.35;6.95;;;;;;;;;;5031697;28;20117;-85
2021/12/04 04:18:25;;;;;;;12.07;6.85;;;;;;;;;;5034386;28;20028;-87
2021/12/04 04:20:51;;;;;;;12.32;6.75;;;;;;;;;;5037133;28;20022;-84
2021/12/04 04:23:16;;;;;;;12.10;6.60;;;;;;;;;;5036798;28;20119;-88
2021/12/04 04:25:42;;;;;;;10.52;6.80;;;;;;;;;;5030805;28;20029;-87
2021/12/04 04:28:07;;;;;;;10.77;6.25;;;;;;;;;;5034605;28;20017;-84
2021/12/04 04:30:34;;;;;;;12.38;7.43;;;;;;;;;;5036584;28;20025;-84
2021/12/04 04:33:00;;;;;;;10.43;6.45;;;;;;;;;;5046714;28;20031;-87
2021/12/04 04:35:27;;;;;;;11.20;6.90;;;;;;;;;;5046244;28;20021;-84
2021/12/04 04:38:17;;;;;;;13.63;7.45;;;;;;;;;;5033356;28;20123;-81
2021/12/04 04:59:45;;;;;;;15.30;9.32;;;;;;;;;;5050617;28;20036;-85
2021/12/04 05:12:49;;;;;;;13.57;9.10;;;;;;;;;;5050349;28;20141;-84
2021/12/04 05:15:20;;;;;;;14.07;9.25;;;;;;;;;;5031446;28;20047;-84
2021/12/04 05:20:20;;;;;;;17.08;9.77;;;;;;;;;;5052557;28;20039;-84
2021/12/04 05:22:45;;;;;;;16.75;10.32;;;;;;;;;;5032356;28;20049;-81
2021/12/04 05:25:10;;;;;;;17.58;10.70;;;;;;;;;;5033658;28;20053;-84
2021/12/04 05:27:36;;;;;;;20.90;11.07;;;;;;;;;;5031251;28;20143;-85
2021/12/04 05:30:04;;;;;;;16.45;9.85;;;;;;;;;;5045541;28;20059;-84
2021/12/04 05:32:29;;;;;;;17.95;10.35;;;;;;;;;;5043497;28;20151;-84
2021/12/04 05:34:55;;;;;;;15.55;9.80;;;;;;;;;;5050505;28;20142;-84
2021/12/04 05:37:20;;;;;;;17.60;9.73;;;;;;;;;;5031779;28;20028;-86
2021/12/04 05:39:45;;;;;;;16.92;10.32;;;;;;;;;;5041590;28;20032;-88
2021/12/04 05:42:11;;;;;;;13.63;9.23;;;;;;;;;;5037979;28;20064;-88
2021/12/04 05:44:38;;;;;;;16.83;9.95;;;;;;;;;;5032106;28;20040;-88
2021/12/04 05:47:43;;;;;;;19.77;11.55;;;;;;;;;;5032601;28;20025;-84
2021/12/04 05:50:11;;;;;;;16.85;9.27;;;;;;;;;;5047059;28;20040;-85
2021/12/04 05:52:52;;;;;;;17.67;9.93;;;;;;;;;;5055637;28;20496;-82
2021/12/04 05:55:21;;;;;;;13.90;8.88;;;;;;;;;;5032683;28;20064;-88
2021/12/04 05:57:47;;;;;;;17.20;10.05;;;;;;;;;;5054609;28;20072;-87
2021/12/04 06:00:19;;;;;;;17.63;10.05;;;;;;;;;;5039487;28;20048;-84
2021/12/04 06:02:45;;;;;;;16.73;9.88;;;;;;;;;;5038854;28;20029;-81
2021/12/04 06:05:12;;;;;;;13.90;8.18;;;;;;;;;;5036465;28;20029;-83
2021/12/04 06:07:37;;;;;;;14.65;8.75;;;;;;;;;;5053940;28;20439;-84
2021/12/04 06:10:05;;;;;;;16.38;9.20;;;;;;;;;;5031642;28;20078;-84
2021/12/04 06:12:31;;;;;;;14.38;8.75;;;;;;;;;;5028124;28;20087;-84
2021/12/04 06:14:56;;;;;;;12.10;8.00;;;;;;;;;;5034227;28;20481;-84
2021/12/04 06:17:23;;;;;;;12.98;8.25;;;;;;;;;;5035761;28;20036;-84
2021/12/04 06:22:42;;;;;;;11.27;7.97;;;;;;;;;;5048446;28;20035;-83
2021/12/04 06:25:24;;;;;;;13.88;7.97;;;;;;;;;;5033097;28;20032;-84
2021/12/04 06:27:50;;;;;;;14.73;7.95;;;;;;;;;;5039219;28;20447;-87
2021/12/04 06:30:16;;;;;;;14.18;8.40;;;;;;;;;;5036842;28;20021;-85
2021/12/04 06:32:43;;;;;;;12.75;8.20;;;;;;;;;;5036280;28;20385;-84
2021/12/04 06:35:10;;;;;;;12.63;7.20;;;;;;;;;;5036514;28;20470;-88
2021/12/04 06:37:36;;;;;;;13.63;7.35;;;;;;;;;;5035444;28;20025;-87
2021/12/04 06:40:04;;;;;;;11.02;7.30;;;;;;;;;;5033017;28;20032;-84
2021/12/04 06:42:29;;;;;;;11.35;6.47;;;;;;;;;;5040548;28;20029;-81
2021/12/04 06:44:56;;;;;;;13.02;7.15;;;;;;;;;;5033411;28;20378;-84
2021/12/04 06:47:22;;;;;;;11.38;7.05;;;;;;;;;;5036753;28;20043;-84
2021/12/04 06:49:50;;;;;;;10.40;6.15;;;;;;;;;;5032109;28;20481;-85
2021/12/04 06:52:19;;;;;;;9.13;6.70;;;;;;;;;;5027409;28;20023;-81
2021/12/04 06:55:02;;;;;;;11.70;6.68;;;;;;;;;;5035582;28;20507;-84
2021/12/04 06:57:29;;;;;;;12.77;7.30;;;;;;;;;;5036165;28;20115;-84
2021/12/04 06:59:56;;;;;;;10.93;6.80;;;;;;;;;;5053618;28;20411;-82
2021/12/04 07:02:21;;;;;;;11.30;6.72;;;;;;;;;;5030066;28;20025;-84
2021/12/04 07:04:47;;;;;;;9.70;6.07;;;;;;;;;;5028283;28;20127;-81
2021/12/04 07:07:13;;;;;;;10.18;5.80;;;;;;;;;;5036207;28;20102;-84
2021/12/04 07:09:40;;;;;;;9.80;6.18;;;;;;;;;;5029942;28;20068;-87
2021/12/04 07:12:06;;;;;;;11.18;5.95;;;;;;;;;;5056211;28;20052;-87
2021/12/04 07:14:32;;;;;;;10.45;6.28;;;;;;;;;;5036178;28;20472;-85
2021/12/04 07:17:01;;;;;;;10.35;6.20;;;;;;;;;;5025775;28;20103;-83
2021/12/04 07:19:26;;;;;;;8.80;5.82;;;;;;;;;;5053035;28;20423;-82
2021/12/04 07:21:52;;;;;;;10.20;5.70;;;;;;;;;;5042052;28;20074;-84
2021/12/04 07:24:17;;;;;;;7.40;4.60;;;;;;;;;;5034974;28;20232;-83
2021/12/04 07:26:43;;;;;;;6.80;4.60;;;;;;;;;;5036113;28;20025;-81
2021/12/04 07:29:09;;;;;;;7.93;4.95;;;;;;;;;;5031283;28;20029;-84
2021/12/04 07:31:35;;;;;;;7.00;4.32;;;;;;;;;;5039394;28;20036;-84
2021/12/04 07:34:00;;;;;;;8.20;4.57;;;;;;;;;;5033374;28;20112;-86
2021/12/04 07:36:27;;;;;;;7.15;4.88;;;;;;;;;;5030177;28;20126;-84
2021/12/04 07:38:52;;;;;;;8.32;4.40;;;;;;;;;;5034885;28;20032;-81
2021/12/04 07:41:18;;;;;;;7.00;4.50;;;;;;;;;;5031258;28;20021;-87
2021/12/04 07:43:43;;;;;;;7.90;4.70;;;;;;;;;;5031122;28;20095;-84
2021/12/04 07:46:09;;;;;;;7.65;4.75;;;;;;;;;;5035861;28;20104;-81
2021/12/04 07:48:35;;;;;;;7.90;4.80;;;;;;;;;;5039330;28;20496;-84
2021/12/04 07:51:02;;;;;;;8.75;5.22;;;;;;;;;;5030280;28;20024;-81
2021/12/04 07:53:28;;;;;;;9.43;4.85;;;;;;;;;;5031644;28;20033;-81
2021/12/04 07:55:53;;;;;;;10.57;4.93;;;;;;;;;;5030464;28;20025;-86
2021/12/04 07:58:19;;;;;;;10.20;5.00;;;;;;;;;;5032186;28;20446;-82
2021/12/04 08:00:44;;;;;;;10.65;5.28;;;;;;;;;;5051013;28;20025;-81
2021/12/04 08:03:09;;;;;;;11.98;6.40;;;;;;;;;;5029332;28;20025;-82
2021/12/04 08:05:35;;;;;;;12.88;5.90;;;;;;;;;;5033844;28;20029;-82
2021/12/04 08:08:02;;;;;;;11.85;5.78;;;;;;;;;;5032175;28;20037;-83
2021/12/04 08:10:27;;;;;;;10.95;6.00;;;;;;;;;;5051557;28;20068;-84
2021/12/04 08:12:53;;;;;;;10.77;5.70;;;;;;;;;;5039359;28;20073;-84
2021/12/04 08:15:20;;;;;;;10.20;5.90;;;;;;;;;;5029834;28;20017;-84
2021/12/04 08:17:46;;;;;;;9.90;5.60;;;;;;;;;;5032482;28;20033;-81
2021/12/04 08:20:14;;;;;;;12.50;6.22;;;;;;;;;;5051146;28;20033;-84
2021/12/04 08:22:40;;;;;;;14.73;6.20;;;;;;;;;;5052460;28;20078;-82
2021/12/04 08:25:07;;;;;;;14.82;6.82;;;;;;;;;;5050741;28;20039;-87
2021/12/04 08:27:32;;;;;;;13.30;6.18;;;;;;;;;;5041678;28;20669;-84
2021/12/04 08:29:58;;;;;;;9.57;5.53;;;;;;;;;;5034640;28;20037;-84
2021/12/04 08:32:24;;;;;;;13.98;7.00;;;;;;;;;;5028388;28;20021;-84
2021/12/04 08:34:51;;;;;;;17.15;8.02;;;;;;;;;;5030235;28;20373;-82
2021/12/04 08:37:16;;;;;;;12.27;7.13;;;;;;;;;;5051172;28;20647;-84
2021/12/04 08:39:41;;;;;;;12.65;6.90;;;;;;;;;;5033334;28;20108;-84
2021/12/04 08:42:07;;;;;;;13.18;7.03;;;;;;;;;;5044652;28;20029;-84
2021/12/04 08:44:33;;;;;;;13.63;7.45;;;;;;;;;;5048001;28;20464;-82
2021/12/04 08:47:08;;;;;;;15.05;8.10;;;;;;;;;;5027891;28;20152;-86
2021/12/04 08:49:40;;;;;;;11.32;6.72;;;;;;;;;;5029162;28;20044;-83
2021/12/04 08:52:09;;;;;;;13.55;7.10;;;;;;;;;;5031709;28;20087;-81
2021/12/04 08:54:39;;;;;;;12.88;7.15;;;;;;;;;;5032753;28;20032;-85
2021/12/04 08:57:13;;;;;;;12.77;7.13;;;;;;;;;;5047058;28;20037;-84
2021/12/04 08:59:38;;;;;;;13.70;7.30;;;;;;;;;;5030569;28;20125;-82
2021/12/04 09:02:18;;;;;;;11.95;6.65;;;;;;;;;;5026157;28;20461;-83
2021/12/04 09:04:46;;;;;;;10.40;6.82;;;;;;;;;;5033134;28;20025;-84
2021/12/04 09:07:13;;;;;;;13.35;7.25;;;;;;;;;;5029691;28;20388;-82
2021/12/04 09:09:41;;;;;;;12.75;6.75;;;;;;;;;;5032533;28;20123;-86
2021/12/04 09:13:10;;;;;;;12.38;7.50;;;;;;;;;;5033694;28;20051;-84
2021/12/04 09:15:42;;;;;;;12.30;6.97;;;;;;;;;;5047622;28;20144;-87
2021/12/04 09:18:11;;;;;;;10.18;6.60;;;;;;;;;;5050206;28;20054;-88
2021/12/04 09:20:42;;;;;;;11.50;7.22;;;;;;;;;;5036391;28;20021;-88
2021/12/04 09:23:16;;;;;;;11.70;7.10;;;;;;;;;;5034006;28;20120;-85
2021/12/04 09:25:45;;;;;;;13.23;6.85;;;;;;;;;;5034417;28;20027;-82
2021/12/04 09:28:21;;;;;;;11.05;7.40;;;;;;;;;;5034581;28;20052;-88
2021/12/04 10:01:06;;;;;;;16.25;8.68;;;;;;;;;;5053649;28;20289;-86
2021/12/04 10:18:56;;;;;;;14.40;8.13;;;;;;;;;;5020041;28;19952;-87
2021/12/04 10:33:24;;;;;;;16.30;8.25;;;;;;;;;;5043868;28;20087;-85
2021/12/04 10:36:03;;;;;;;16.23;7.78;;;;;;;;;;5035712;28;20028;-83
2021/12/04 10:38:32;;;;;;;14.90;8.10;;;;;;;;;;5054085;28;20427;-86
2021/12/04 10:40:57;;;;;;;13.05;7.95;;;;;;;;;;5037056;28;20462;-81
2021/12/04 10:43:29;;;;;;;15.57;8.02;;;;;;;;;;5050452;28;20028;-85
2021/12/04 10:46:01;;;;;;;15.60;8.13;;;;;;;;;;5032889;28;20503;-83
2021/12/04 10:48:30;;;;;;;16.40;8.55;;;;;;;;;;5037115;28;20029;-83
2021/12/04 10:51:30;;;;;;;16.52;8.68;;;;;;;;;;5037020;28;20037;-84
2021/12/04 10:54:04;;;;;;;16.77;8.98;;;;;;;;;;5053668;28;20804;-84
2021/12/04 10:57:17;;;;;;;15.93;8.98;;;;;;;;;;5036609;28;20396;-83
2021/12/04 11:03:06;;;;;;;14.68;8.45;;;;;;;;;;5054281;28;20061;-84
2021/12/04 11:43:12;;;;;;;14.90;9.93;;;;;;;;;;5026210;28;20160;-84
2021/12/04 11:46:45;;;;;;;13.73;9.85;;;;;;;;;;5009517;28;21490;-86
2021/12/04 11:49:14;;;;;;;13.98;9.95;;;;;;;;;;5010008;28;20037;-84
2021/12/04 11:52:14;;;;;;;14.25;9.50;;;;;;;;;;5029618;28;20025;-84
2021/12/04 11:55:09;;;;;;;13.32;9.60;;;;;;;;;;5009008;28;20021;-85
2021/12/04 11:57:38;;;;;;;14.77;9.82;;;;;;;;;;5014030;28;20817;-85
2021/12/04 12:00:38;;;;;;;13.45;9.45;;;;;;;;;;5019696;28;20026;-83
2021/12/04 12:03:14;;;;;;;13.70;9.90;;;;;;;;;;4943172;28;20030;-84
2021/12/04 12:06:10;;;;;;;12.48;8.88;;;;;;;;;;4942091;29;20088;-80
2021/12/04 12:08:45;;;;;;;15.02;9.65;;;;;;;;;;4960552;28;20083;-83
2021/12/04 12:11:42;;;;;;;12.10;8.68;;;;;;;;;;5017293;28;20017;-83
2021/12/04 12:14:12;;;;;;;13.70;8.52;;;;;;;;;;5029118;28;20096;-88
2021/12/04 12:16:56;;;;;;;13.88;8.75;;;;;;;;;;5011713;28;20046;-82
2021/12/04 12:19:42;;;;;;;13.15;8.45;;;;;;;;;;5016664;28;20087;-81
2021/12/04 12:22:56;;;;;;;14.07;8.43;;;;;;;;;;5011715;28;20021;-82
2021/12/04 12:34:16;;;;;;;12.75;7.93;;;;;;;;;;5033317;28;20037;-83
2021/12/04 12:36:45;;;;;;;13.32;8.40;;;;;;;;;;5008880;28;20033;-81
2021/12/04 12:39:16;;;;;;;13.68;9.27;;;;;;;;;;5029005;28;20025;-83
2021/12/04 12:41:48;;;;;;;13.40;8.77;;;;;;;;;;5021945;28;20032;-82
2021/12/04 12:44:45;;;;;;;14.85;8.95;;;;;;;;;;5027929;28;20041;-84
2021/12/04 12:47:17;;;;;;;12.02;8.10;;;;;;;;;;5023931;28;20025;-88
2021/12/04 12:49:45;;;;;;;13.20;8.55;;;;;;;;;;5033750;28;20025;-83
2021/12/04 12:52:21;;;;;;;13.00;8.57;;;;;;;;;;5014150;28;20480;-83
2021/12/04 12:55:10;;;;;;;12.88;8.38;;;;;;;;;;5034131;28;20029;-83
2021/12/04 12:57:39;;;;;;;14.10;8.57;;;;;;;;;;5011726;28;20695;-81
2021/12/04 13:14:07;;;;;;;12.68;8.93;;;;;;;;;;5026638;28;20033;-83
2021/12/04 13:16:32;;;;;;;13.73;8.60;;;;;;;;;;5036572;28;20087;-83
2021/12/04 13:19:02;;;;;;;11.95;8.57;;;;;;;;;;5033935;28;20484;-83
2021/12/04 13:21:27;;;;;;;12.77;8.18;;;;;;;;;;5041152;28;20028;-83
2021/12/04 13:23:56;;;;;;;12.65;9.07;;;;;;;;;;5038784;28;20036;-83
2021/12/04 13:26:32;;;;;;;13.93;9.10;;;;;;;;;;5036738;28;20029;-86
2021/12/04 13:29:00;;;;;;;14.98;10.10;;;;;;;;;;5053889;28;20025;-81
2021/12/04 13:31:27;;;;;;;15.13;8.95;;;;;;;;;;5039865;28;20025;-83
2021/12/04 13:33:54;;;;;;;18.40;10.57;;;;;;;;;;5038128;28;20026;-86
2021/12/04 13:36:25;;;;;;;17.58;10.77;;;;;;;;;;5056715;28;20107;-87
2021/12/04 13:38:55;;;;;;;16.85;9.98;;;;;;;;;;5038682;28;20070;-87
2021/12/04 13:41:21;;;;;;;16.63;10.60;;;;;;;;;;5045016;28;20032;-82
2021/12/04 13:43:52;;;;;;;16.30;10.25;;;;;;;;;;5045876;28;20024;-86
2021/12/04 13:46:17;;;;;;;20.08;10.82;;;;;;;;;;5035516;28;20523;-84
2021/12/04 13:48:42;;;;;;;17.10;10.25;;;;;;;;;;5034120;28;20092;-83
2021/12/04 13:51:10;;;;;;;17.42;11.15;;;;;;;;;;5038740;28;20025;-87
2021/12/04 13:53:38;;;;;;;16.77;10.07;;;;;;;;;;5030854;28;20025;-83
2021/12/04 13:56:10;;;;;;;19.02;10.63;;;;;;;;;;5034583;28;20140;-83
2021/12/04 13:58:47;;;;;;;18.10;11.15;;;;;;;;;;5041357;28;20036;-81
2021/12/04 14:01:14;;;;;;;17.25;11.13;;;;;;;;;;5054614;28;20047;-81
2021/12/04 14:03:39;;;;;;;16.63;10.45;;;;;;;;;;5032259;28;20033;-87
2021/12/04 14:06:16;;;;;;;19.23;10.60;;;;;;;;;;5032118;28;20511;-83
2021/12/04 14:08:43;;;;;;;18.27;10.40;;;;;;;;;;5034093;28;20029;-86
2021/12/04 14:11:09;;;;;;;18.50;10.98;;;;;;;;;;5037703;28;20051;-81
2021/12/04 14:13:38;;;;;;;17.10;10.55;;;;;;;;;;5037661;28;20053;-83
2021/12/04 14:16:05;;;;;;;16.88;10.25;;;;;;;;;;5039849;28;20124;-81
2021/12/04 14:18:30;;;;;;;16.83;10.52;;;;;;;;;;5039419;28;20095;-81
2021/12/04 14:21:02;;;;;;;16.38;10.25;;;;;;;;;;5036474;28;20032;-83
2021/12/04 14:23:30;;;;;;;18.70;10.82;;;;;;;;;;5043066;28;20035;-87
2021/12/04 14:25:56;;;;;;;17.90;11.05;;;;;;;;;;5054296;28;20082;-87
2021/12/04 14:28:29;;;;;;;17.73;10.93;;;;;;;;;;5036362;28;20426;-83
2021/12/04 14:30:55;;;;;;;16.15;10.02;;;;;;;;;;5036853;28;20076;-84
2021/12/04 14:33:23;;;;;;;16.48;10.60;;;;;;;;;;5046820;28;20495;-81
2021/12/04 14:35:51;;;;;;;16.60;10.40;;;;;;;;;;5050142;28;20536;-88
2021/12/04 14:38:20;;;;;;;15.57;10.23;;;;;;;;;;5032767;28;20014;-88
2021/12/04 14:40:52;;;;;;;14.55;9.75;;;;;;;;;;5037261;28;20429;-81
2021/12/04 14:43:22;;;;;;;17.45;10.95;;;;;;;;;;5037921;28;20028;-84
2021/12/04 14:45:52;;;;;;;15.90;10.45;;;;;;;;;;5034011;28;20116;-83
2021/12/04 14:48:34;;;;;;;16.25;9.60;;;;;;;;;;5039360;28;20048;-84
2021/12/04 14:51:05;;;;;;;13.20;8.45;;;;;;;;;;5032679;28;20040;-84
2021/12/04 14:53:36;;;;;;;14.48;8.82;;;;;;;;;;5043968;28;20465;-81
2021/12/04 14:56:06;;;;;;;15.20;8.30;;;;;;;;;;5031961;28;20514;-88
2021/12/04 14:58:32;;;;;;;11.60;6.80;;;;;;;;;;5030816;28;20395;-81
2021/12/04 15:01:06;;;;;;;9.40;6.05;;;;;;;;;;5033797;28;20116;-87
2021/12/04 15:03:51;;;;;;;10.88;5.13;;;;;;;;;;5053738;28;20104;-84
2021/12/04 15:06:18;;;;;;;8.93;4.43;;;;;;;;;;5033390;28;20013;-81
2021/12/04 15:08:46;;;;;;;7.30;3.38;;;;;;;;;;5037768;28;20199;-81
2021/12/04 15:11:16;;;;;;;7.80;3.03;;;;;;;;;;5035616;28;20017;-84
2021/12/04 15:13:58;;;;;;;5.47;2.50;;;;;;;;;;5032617;28;20025;-84
2021/12/04 15:17:05;;;;;;;4.78;2.05;;;;;;;;;;4999460;28;1058938;-81
2021/12/04 15:19:22;;;;;;;4.43;1.77;;;;;;;;;;5049257;28;20102;-84
2021/12/04 15:21:53;;;;;;;5.47;1.73;;;;;;;;;;5034672;28;20059;-84
2021/12/04 15:24:23;;;;;;;4.82;1.95;;;;;;;;;;5053826;28;20023;-88
2021/12/04 15:26:52;;;;;;;4.78;1.80;;;;;;;;;;5057722;28;20710;-84
2021/12/04 15:29:22;;;;;;;4.63;1.70;;;;;;;;;;5063762;28;20036;-89
2021/12/04 15:31:50;;;;;;;4.47;1.73;;;;;;;;;;5056287;28;20029;-83
2021/12/04 15:34:16;;;;;;;5.05;1.70;;;;;;;;;;5053810;28;20035;-88
2021/12/04 15:36:46;;;;;;;4.45;1.75;;;;;;;;;;5038352;28;20499;-88
2021/12/04 15:39:20;;;;;;;5.00;1.63;;;;;;;;;;5036689;28;20025;-84
2021/12/04 15:44:36;;;;;;;5.07;1.88;;;;;;;;;;5059079;28;20030;-89
2021/12/04 15:47:35;;;;;;;5.13;2.30;;;;;;;;;;5051447;28;20083;-84
2021/12/04 15:50:26;;;;;;;6.75;2.47;;;;;;;;;;5036572;28;20021;-83
2021/12/04 15:55:34;;;;;;;7.00;2.30;;;;;;;;;;5059000;28;20024;-83
2021/12/04 15:58:18;;;;;;;7.15;2.20;;;;;;;;;;5051420;28;20068;-89
2021/12/04 16:00:52;;;;;;;4.82;1.77;;;;;;;;;;5035386;28;20388;-84
2021/12/04 16:03:19;;;;;;;4.63;1.60;;;;;;;;;;5051679;28;20052;-84
2021/12/04 16:05:57;;;;;;;6.55;1.67;;;;;;;;;;5033709;28;20058;-84
2021/12/04 16:08:26;;;;;;;4.38;1.90;;;;;;;;;;5037798;28;20029;-84
2021/12/04 16:10:52;;;;;;;3.53;1.65;;;;;;;;;;5034331;28;20024;-82
2021/12/04 16:13:38;;;;;;;5.00;1.60;;;;;;;;;;5036737;28;20032;-84
2021/12/04 16:16:25;;;;;;;3.10;1.20;;;;;;;;;;5021636;28;20052;-83
2021/12/04 16:18:54;;;;;;;7.30;2.10;;;;;;;;;;5023352;28;20037;-84
2021/12/04 16:21:19;;;;;;;5.28;1.90;;;;;;;;;;5025037;28;20021;-84
2021/12/04 16:23:48;;;;;;;5.28;2.10;;;;;;;;;;5023899;28;20071;-89
2021/12/04 16:26:17;;;;;;;6.70;2.20;;;;;;;;;;5017413;28;20032;-81
2021/12/04 16:31:52;;;;;;;4.65;2.33;;;;;;;;;;5026193;28;20048;-90
2021/12/04 16:36:45;;;;;;;6.43;2.47;;;;;;;;;;5037590;28;20017;-82
2021/12/04 16:39:12;;;;;;;6.93;2.05;;;;;;;;;;5017628;28;20499;-89
2021/12/04 16:41:50;;;;;;;8.50;2.55;;;;;;;;;;5009373;28;20033;-89
2021/12/04 16:44:16;;;;;;;9.25;4.03;;;;;;;;;;5010399;28;20485;-81
2021/12/04 16:46:41;;;;;;;8.88;4.13;;;;;;;;;;5015619;28;20030;-84
2021/12/04 16:49:08;;;;;;;8.13;4.78;;;;;;;;;;5020345;28;20090;-82
2021/12/04 16:55:18;;;;;;;9.77;4.15;;;;;;;;;;5026061;28;20588;-84
2021/12/04 16:57:59;;;;;;;7.78;4.95;;;;;;;;;;5006701;28;20041;-81
2021/12/04 17:00:26;;;;;;;9.38;4.57;;;;;;;;;;5015586;28;20446;-82
2021/12/04 17:02:51;;;;;;;11.30;4.47;;;;;;;;;;5020541;28;20028;-85
2021/12/04 17:05:17;;;;;;;9.82;4.07;;;;;;;;;;5040120;28;20472;-85
2021/12/04 17:07:44;;;;;;;7.90;4.60;;;;;;;;;;5023981;28;20029;-88
2021/12/04 17:10:11;;;;;;;6.60;3.97;;;;;;;;;;5010226;28;20025;-82
2021/12/04 17:12:38;;;;;;;10.80;4.10;;;;;;;;;;5016943;28;20029;-84
2021/12/04 17:15:07;;;;;;;8.00;3.35;;;;;;;;;;5020417;28;20108;-83
2021/12/04 17:17:36;;;;;;;9.90;3.78;;;;;;;;;;5018698;28;20090;-87
2021/12/04 17:20:04;;;;;;;10.80;3.45;;;;;;;;;;5027871;28;20052;-84
2021/12/04 17:22:29;;;;;;;10.07;3.70;;;;;;;;;;5019025;28;20032;-88
2021/12/04 17:24:55;;;;;;;8.77;3.40;;;;;;;;;;5027509;28;20021;-89
2021/12/04 17:27:20;;;;;;;11.00;3.42;;;;;;;;;;5022394;28;20048;-89
2021/12/04 17:29:51;;;;;;;11.02;2.85;;;;;;;;;;5015011;28;20034;-84
2021/12/04 17:32:16;;;;;;;8.13;2.65;;;;;;;;;;5043356;28;20021;-87
2021/12/04 17:34:42;;;;;;;9.38;2.63;;;;;;;;;;5040341;28;20373;-82
2021/12/04 17:37:07;;;;;;;7.20;2.22;;;;;;;;;;5039865;28;20040;-89
2021/12/04 17:39:33;;;;;;;11.77;2.65;;;;;;;;;;5020354;28;20393;-83
2021/12/04 17:41:58;;;;;;;12.32;2.28;;;;;;;;;;5021109;28;20025;-87
2021/12/04 17:44:24;;;;;;;7.32;1.92;;;;;;;;;;5013390;28;20056;-88
2021/12/04 17:46:53;;;;;;;8.88;2.97;;;;;;;;;;5028566;28;20021;-87
2021/12/04 17:49:19;;;;;;;10.68;2.67;;;;;;;;;;5037439;28;20036;-85
2021/12/04 17:51:46;;;;;;;7.10;2.40;;;;;;;;;;5020352;28;20473;-82
2021/12/04 17:54:12;;;;;;;8.10;2.70;;;;;;;;;;5027736;28;20064;-81
2021/12/04 17:56:39;;;;;;;7.97;2.33;;;;;;;;;;5042590;28;20025;-81
2021/12/04 17:59:06;;;;;;;8.48;2.67;;;;;;;;;;5020964;28;20102;-84